Terminal Aerodrome Forecast
Issued by NWS

Home | Current Version | Previous Version | Text Only | Print | Product List | Glossary On
Versions: 1 2 3 4 5 6 7 8 9 10 11 12 13 14 15 16 17 18 19 20 21 22 23 24 25 26 27
243
FTUS43 KEAX 211157 CCA
TAFMKC
TAF COR
KMKC 211157Z 2112/2212 VRB05KT 4SM BR OVC004
      TEMPO 2112/2114 1SM BR OVC002
     FM211600 21008KT P6SM SCT200
     FM212300 VRB05KT P6SM OVC070
     FM220100 VRB05KT P6SM VCSH OVC050
     FM220500 02011KT 5SM -RA BR OVC015=

USA.gov is the U.S. government's official web portal to all federal, state and local government web resources and services.